< < Back
Terminal Aerodrome Forecast


Current Version              Previous Versions:   1  2  3  4  5  6  7  8  9  

Terminal Aerodrome Forecast

574
FTUS44 KBMX 290500
TAFBHM
TAF
KBHM 290522Z 2906/3006 30005KT P6SM SKC
     FM291500 33011G18KT P6SM SKC=



Latest METAR

650
SAUS70 KWBC 291500 RRI
MTRBHM
METAR KBHM 291453Z 01009G16KT 10SM FEW039 SCT150 25/15 A3009 RMK AO2
SLP179 T02500150 51014


USA.gov is the U.S. government's official web portal to all federal, state and local government web resources and services.